createdAt,value
2017-11-28T00:01:18.003Z,45.97
2017-11-28T00:03:43.815Z,45.62
2017-11-28T00:06:09.625Z,45.57
2017-11-28T00:08:35.469Z,45.35
2017-11-28T00:11:01.273Z,45.62
2017-11-28T00:13:27.089Z,45.56
2017-11-28T00:15:52.877Z,45.58
2017-11-28T00:18:19.592Z,46.03
2017-11-28T00:20:45.434Z,45.40
2017-11-28T00:23:11.217Z,45.80
2017-11-28T00:25:37.046Z,46.18
2017-11-28T00:28:02.841Z,45.61
2017-11-28T00:30:28.681Z,45.15
2017-11-28T00:32:54.465Z,45.58
2017-11-28T00:35:21.194Z,45.86
2017-11-28T00:37:46.975Z,45.93
2017-11-28T00:40:12.761Z,45.52
2017-11-28T00:42:38.549Z,45.58
2017-11-28T00:45:04.358Z,45.58
2017-11-28T00:47:30.201Z,46.36
2017-11-28T00:49:55.982Z,45.63
2017-11-28T00:52:22.616Z,45.62
2017-11-28T00:54:49.385Z,45.48
2017-11-28T00:57:16.246Z,46.58
2017-11-28T00:59:42.865Z,47.42
2017-11-28T01:02:08.673Z,45.45
2017-11-28T01:04:35.516Z,45.57
2017-11-28T01:07:02.355Z,46.12
2017-11-28T01:09:29.086Z,45.65
2017-11-28T01:11:54.877Z,45.52
2017-11-28T01:14:20.657Z,45.67
2017-11-28T01:16:46.458Z,46.53
2017-11-28T01:19:13.263Z,45.88
2017-11-28T01:21:39.076Z,45.91
2017-11-28T01:24:04.861Z,45.12
2017-11-28T01:26:31.617Z,46.09
2017-11-28T01:28:57.402Z,45.25
2017-11-28T01:31:23.323Z,45.94
2017-11-28T01:33:49.132Z,46.43
2017-11-28T01:36:14.919Z,45.75
2017-11-28T01:38:41.644Z,45.59
2017-11-28T01:41:07.433Z,45.64
2017-11-28T01:43:34.332Z,45.92
2017-11-28T01:46:00.134Z,45.62
2017-11-28T01:48:25.927Z,45.14
2017-11-28T01:50:51.751Z,46.40
2017-11-28T01:53:18.351Z,45.87
2017-11-28T01:55:44.171Z,46.16
2017-11-28T01:58:09.964Z,45.48
2017-11-28T02:00:36.845Z,45.73
2017-11-28T02:03:03.532Z,45.52
2017-11-28T02:05:29.345Z,45.22
2017-11-28T02:07:55.201Z,45.44
2017-11-28T02:10:21.812Z,45.29
2017-11-28T02:12:47.699Z,45.13
2017-11-28T02:15:13.501Z,45.25
2017-11-28T02:17:39.324Z,45.44
2017-11-28T02:20:05.124Z,45.45
2017-11-28T02:22:30.979Z,45.37
2017-11-28T02:24:56.794Z,45.11
2017-11-28T02:27:22.599Z,44.92
2017-11-28T02:29:48.451Z,44.99
2017-11-28T02:32:14.240Z,45.52
2017-11-28T02:34:40.120Z,45.38
2017-11-28T02:37:05.964Z,45.25
2017-11-28T02:39:31.797Z,45.30
2017-11-28T02:41:57.608Z,45.73
2017-11-28T02:44:24.277Z,45.42
2017-11-28T02:46:50.071Z,45.07
2017-11-28T02:49:22.886Z,45.12
2017-11-28T02:51:50.566Z,45.37
2017-11-28T02:54:16.356Z,45.74
2017-11-28T02:56:42.230Z,45.47
2017-11-28T02:59:08.029Z,44.99
2017-11-28T03:01:34.829Z,45.59
2017-11-28T03:04:00.673Z,44.93
2017-11-28T03:06:26.510Z,45.23
2017-11-28T03:08:53.299Z,45.71
2017-11-28T03:11:19.107Z,45.26
2017-11-28T03:13:44.907Z,45.78
2017-11-28T03:16:11.690Z,45.03
2017-11-28T03:18:38.275Z,45.46
2017-11-28T03:21:04.064Z,45.30
2017-11-28T03:26:24.051Z,45.47
2017-11-28T03:28:52.769Z,45.67
2017-11-28T03:31:28.538Z,45.35
2017-11-28T03:33:59.347Z,46.00
2017-11-28T03:36:26.193Z,45.42
2017-11-28T03:38:51.988Z,45.22
2017-11-28T03:41:18.615Z,45.20
2017-11-28T03:43:44.433Z,45.07
2017-11-28T03:46:13.281Z,45.13
2017-11-28T03:48:39.081Z,46.13
2017-11-28T03:51:04.878Z,45.70
2017-11-28T03:53:30.736Z,45.82
2017-11-28T03:55:56.580Z,45.82
2017-11-28T03:58:23.365Z,45.71
2017-11-28T04:00:49.159Z,45.59
2017-11-28T04:03:15.001Z,45.69
2017-11-28T04:05:40.865Z,45.54
2017-11-28T04:08:06.664Z,45.61
2017-11-28T04:10:32.543Z,46.77
2017-11-28T04:12:58.395Z,45.45
2017-11-28T04:15:24.203Z,46.06
2017-11-28T04:17:50.001Z,45.90
2017-11-28T04:20:16.810Z,45.31
2017-11-28T04:22:42.641Z,45.39
2017-11-28T04:25:08.525Z,45.87
2017-11-28T04:27:34.365Z,45.77
2017-11-28T04:30:00.243Z,45.36
2017-11-28T04:32:26.068Z,45.41
2017-11-28T04:34:51.945Z,45.58
2017-11-28T04:37:17.789Z,45.46
2017-11-28T04:39:44.669Z,45.40
2017-11-28T04:42:10.517Z,45.23
2017-11-28T04:44:36.434Z,45.33
2017-11-28T04:47:02.212Z,45.42
2017-11-28T04:49:28.079Z,45.72
2017-11-28T04:51:53.915Z,45.55
2017-11-28T04:54:19.708Z,45.05
2017-11-28T04:56:45.524Z,45.41
2017-11-28T04:59:11.352Z,45.41
2017-11-28T05:01:37.145Z,45.45
2017-11-28T05:04:02.929Z,44.96
2017-11-28T05:06:28.730Z,45.59
2017-11-28T05:08:55.349Z,44.99
2017-11-28T05:11:22.104Z,45.32
2017-11-28T05:13:47.930Z,45.04
2017-11-28T05:16:14.688Z,45.33
2017-11-28T05:18:41.557Z,45.40
2017-11-28T05:21:08.338Z,45.00
2017-11-28T05:23:34.181Z,45.62
2017-11-28T05:25:59.976Z,45.62
2017-11-28T05:28:25.814Z,45.69
2017-11-28T05:30:51.701Z,45.53
2017-11-28T05:33:18.524Z,46.05
2017-11-28T05:35:45.409Z,46.55
2017-11-28T05:38:12.242Z,45.91
2017-11-28T05:40:38.933Z,45.42
2017-11-28T05:43:05.755Z,45.29
2017-11-28T05:45:32.584Z,45.12
2017-11-28T05:47:59.375Z,45.48
2017-11-28T05:50:26.229Z,45.03
2017-11-28T05:52:52.064Z,45.31
2017-11-28T05:55:17.940Z,45.01
2017-11-28T05:57:43.774Z,45.15
2017-11-28T06:00:10.584Z,44.53
2017-11-28T06:02:36.472Z,44.98
2017-11-28T06:05:02.313Z,45.00
2017-11-28T06:07:28.147Z,44.93
2017-11-28T06:09:53.989Z,45.37
2017-11-28T06:12:20.766Z,45.59
2017-11-28T06:14:46.708Z,45.79
2017-11-28T06:17:13.439Z,45.89
2017-11-28T06:19:40.233Z,45.37
2017-11-28T06:22:06.077Z,45.66
2017-11-28T06:24:31.874Z,46.24
2017-11-28T06:26:57.749Z,46.35
2017-11-28T06:29:24.618Z,46.14
2017-11-28T06:31:50.471Z,45.64
2017-11-28T06:34:17.294Z,45.08
2017-11-28T06:36:43.137Z,45.32
2017-11-28T06:39:08.973Z,46.30
2017-11-28T06:41:34.776Z,45.23
2017-11-28T06:44:00.568Z,45.03
2017-11-28T06:46:27.237Z,44.94
2017-11-28T06:48:53.088Z,45.25
2017-11-28T06:51:18.945Z,45.06
2017-11-28T06:53:44.782Z,44.95
2017-11-28T06:56:10.613Z,44.57
2017-11-28T06:58:36.397Z,44.81
2017-11-28T07:01:03.204Z,45.24
2017-11-28T07:03:30.018Z,45.31
2017-11-28T07:05:56.849Z,45.87
2017-11-28T07:08:23.652Z,45.26
2017-11-28T07:10:49.435Z,45.45
2017-11-28T07:13:15.284Z,45.02
2017-11-28T07:15:42.097Z,45.04
2017-11-28T07:18:07.923Z,45.69
2017-11-28T07:20:33.716Z,45.30
2017-11-28T07:22:59.497Z,45.69
2017-11-28T07:25:25.325Z,45.52
2017-11-28T07:27:51.117Z,45.32
2017-11-28T07:30:17.018Z,45.33
2017-11-28T07:32:42.801Z,46.21
2017-11-28T07:35:09.452Z,46.09
2017-11-28T07:37:35.365Z,45.82
2017-11-28T07:40:01.149Z,46.18
2017-11-28T07:42:26.973Z,46.07
2017-11-28T07:44:53.805Z,45.74
2017-11-28T07:47:19.633Z,46.25
2017-11-28T07:49:46.364Z,46.54
2017-11-28T07:52:12.193Z,45.77
2017-11-28T07:54:38.021Z,45.57
2017-11-28T07:57:03.834Z,45.60
2017-11-28T07:59:29.684Z,45.45
2017-11-28T08:01:55.564Z,46.30
2017-11-28T08:04:21.399Z,46.00
2017-11-28T08:06:47.225Z,45.44
2017-11-28T08:09:13.926Z,45.29
2017-11-28T08:11:39.812Z,45.28
2017-11-28T08:14:06.630Z,45.54
2017-11-28T08:16:32.482Z,45.20
2017-11-28T08:18:58.305Z,45.04
2017-11-28T08:21:24.117Z,45.18
2017-11-28T08:23:49.909Z,45.21
2017-11-28T08:26:15.768Z,45.02
2017-11-28T08:28:41.645Z,45.22
2017-11-28T08:31:07.522Z,45.01
2017-11-28T08:33:33.365Z,44.94
2017-11-28T08:35:59.233Z,45.07
2017-11-28T08:38:25.153Z,45.16
2017-11-28T08:40:51.054Z,45.06
2017-11-28T08:43:16.924Z,45.21
2017-11-28T08:45:42.809Z,45.15
2017-11-28T08:48:09.586Z,45.25
2017-11-28T08:50:35.428Z,45.15
2017-11-28T08:53:01.304Z,45.22
2017-11-28T08:55:27.125Z,45.20
2017-11-28T08:57:55.524Z,45.27
2017-11-28T09:00:21.496Z,44.94
2017-11-28T09:02:48.022Z,45.07
2017-11-28T09:05:14.811Z,45.56
2017-11-28T09:07:40.647Z,45.38
2017-11-28T09:10:07.461Z,45.45
2017-11-28T09:12:34.318Z,45.68
2017-11-28T09:15:00.113Z,45.51
2017-11-28T09:17:25.946Z,45.90
2017-11-28T09:19:52.757Z,45.54
2017-11-28T09:22:19.620Z,45.51
2017-11-28T09:24:46.351Z,45.56
2017-11-28T09:27:12.231Z,45.40
2017-11-28T09:29:38.049Z,45.63
2017-11-28T09:32:03.905Z,45.29
2017-11-28T09:34:29.820Z,45.11
2017-11-28T09:36:56.540Z,44.93
2017-11-28T09:39:22.343Z,44.99
2017-11-28T09:41:48.129Z,45.07
2017-11-28T09:44:13.914Z,44.82
2017-11-28T09:46:39.732Z,45.12
2017-11-28T09:49:05.536Z,45.01
2017-11-28T09:51:31.353Z,44.94
2017-11-28T09:53:57.134Z,45.12
2017-11-28T09:56:23.848Z,44.66
2017-11-28T09:58:49.620Z,44.89
2017-11-28T10:01:15.425Z,45.13
2017-11-28T10:03:41.213Z,44.94
2017-11-28T10:06:07.021Z,45.15
2017-11-28T10:08:32.792Z,44.95
2017-11-28T10:10:59.394Z,44.91
2017-11-28T10:13:25.169Z,44.89
2017-11-28T10:15:50.981Z,45.00
2017-11-28T10:18:16.760Z,44.94
2017-11-28T10:20:42.544Z,45.20
2017-11-28T10:23:08.361Z,44.93
2017-11-28T10:25:34.144Z,45.05
2017-11-28T10:27:59.926Z,45.13
2017-11-28T10:30:26.724Z,44.87
2017-11-28T10:32:52.504Z,44.89
2017-11-28T10:35:18.277Z,44.91
2017-11-28T10:37:44.064Z,44.81
2017-11-28T10:40:09.876Z,45.16
2017-11-28T10:42:35.641Z,45.28
2017-11-28T10:45:02.357Z,45.48
2017-11-28T10:47:29.173Z,45.13
2017-11-28T10:49:54.965Z,44.79
2017-11-28T10:52:20.760Z,45.15
2017-11-28T10:54:47.597Z,44.97
2017-11-28T10:57:13.404Z,44.86
2017-11-28T10:59:39.198Z,45.06
2017-11-28T11:02:05.041Z,45.30
2017-11-28T11:04:30.833Z,45.69
2017-11-28T11:06:57.564Z,44.93
2017-11-28T11:09:23.388Z,46.34
2017-11-28T11:11:49.161Z,45.30
2017-11-28T11:14:14.981Z,45.04
2017-11-28T11:16:40.755Z,45.21
2017-11-28T11:19:06.561Z,45.02
2017-11-28T11:21:32.378Z,45.50
2017-11-28T11:23:58.201Z,45.01
2017-11-28T11:26:23.982Z,45.14
2017-11-28T11:28:49.797Z,45.37
2017-11-28T11:31:15.585Z,45.14
2017-11-28T11:33:41.390Z,45.03
2017-11-28T11:36:07.160Z,45.36
2017-11-28T11:38:32.939Z,44.94
2017-11-28T11:40:58.752Z,45.39
2017-11-28T11:43:24.531Z,45.33
2017-11-28T11:45:50.313Z,45.28
2017-11-28T11:48:17.057Z,45.79
2017-11-28T11:50:42.802Z,45.45
2017-11-28T11:53:08.617Z,45.26
2017-11-28T11:55:34.393Z,45.54
2017-11-28T11:58:00.173Z,45.12
2017-11-28T12:00:26.004Z,44.94
2017-11-28T12:02:51.792Z,44.86
2017-11-28T12:05:17.604Z,45.17
2017-11-28T12:07:44.273Z,44.96
2017-11-28T12:10:11.016Z,45.12
2017-11-28T12:12:36.784Z,45.04
2017-11-28T12:15:02.580Z,44.93
2017-11-28T12:17:28.386Z,44.81
2017-11-28T12:19:54.164Z,44.69
2017-11-28T12:22:19.976Z,45.00
2017-11-28T12:24:45.762Z,45.00
2017-11-28T12:27:11.557Z,45.19
2017-11-28T12:29:37.332Z,45.03
2017-11-28T12:32:03.116Z,45.05
2017-11-28T12:34:28.905Z,45.05
2017-11-28T12:36:54.685Z,44.95
2017-11-28T12:39:20.460Z,44.88
2017-11-28T12:41:46.231Z,44.83
2017-11-28T12:44:12.003Z,44.86
2017-11-28T12:46:37.770Z,45.22
2017-11-28T12:49:03.589Z,45.15
2017-11-28T12:51:29.364Z,44.91
2017-11-28T12:53:55.141Z,45.20
2017-11-28T12:56:20.926Z,44.79
2017-11-28T12:58:46.721Z,44.93
2017-11-28T13:01:12.487Z,44.86
2017-11-28T13:03:38.273Z,45.02
2017-11-28T13:06:04.057Z,45.33
2017-11-28T13:08:29.848Z,45.11
2017-11-28T13:10:55.614Z,45.10
2017-11-28T13:13:21.392Z,44.88
2017-11-28T13:15:47.179Z,44.90
2017-11-28T13:18:13.008Z,44.94
2017-11-28T13:20:38.784Z,45.17
2017-11-28T13:23:04.610Z,45.30
2017-11-28T13:25:31.328Z,45.41
2017-11-28T13:27:58.172Z,45.21
2017-11-28T13:30:24.977Z,45.08
2017-11-28T13:32:50.757Z,44.93
2017-11-28T13:35:16.575Z,44.99
2017-11-28T13:37:43.204Z,45.11
2017-11-28T13:40:09.800Z,45.31
2017-11-28T13:42:35.581Z,44.90
2017-11-28T13:45:01.389Z,45.07
2017-11-28T13:47:27.189Z,44.88
2017-11-28T13:49:53.042Z,44.72
2017-11-28T13:52:18.855Z,44.46
2017-11-28T13:54:44.632Z,44.84
2017-11-28T13:57:10.424Z,44.90
2017-11-28T13:59:36.254Z,44.62
2017-11-28T14:02:02.965Z,45.12
2017-11-28T14:04:28.753Z,44.91
2017-11-28T14:06:54.574Z,44.94
2017-11-28T14:09:20.373Z,44.75
2017-11-28T14:11:46.140Z,44.82
2017-11-28T14:14:11.929Z,45.22
2017-11-28T14:16:37.712Z,44.98
2017-11-28T14:19:04.605Z,44.68
2017-11-28T14:21:45.361Z,44.75
2017-11-28T14:24:17.216Z,45.10
2017-11-28T14:26:49.096Z,44.96
2017-11-28T14:29:15.861Z,45.23
2017-11-28T14:34:44.724Z,45.27
2017-11-28T14:37:11.314Z,45.21
2017-11-28T14:39:38.045Z,45.00
2017-11-28T14:42:06.704Z,44.67
2017-11-28T14:44:36.409Z,44.91
2017-11-28T14:47:02.173Z,45.17
2017-11-28T14:49:27.970Z,44.73
2017-11-28T14:52:00.801Z,44.72
2017-11-28T14:54:32.800Z,44.61
2017-11-28T14:57:03.409Z,44.57
2017-11-28T14:59:35.377Z,44.92
2017-11-28T15:02:07.502Z,45.92
2017-11-28T15:04:39.537Z,45.08
2017-11-28T15:07:11.297Z,45.07
2017-11-28T15:09:40.962Z,44.82
2017-11-28T15:12:12.961Z,44.82
2017-11-28T15:14:44.929Z,44.96
2017-11-28T15:17:16.956Z,45.09
2017-11-28T15:19:43.541Z,45.17
2017-11-28T15:22:10.383Z,45.19
2017-11-28T15:24:37.053Z,44.91
2017-11-28T15:27:03.857Z,44.82
2017-11-28T15:29:30.572Z,45.85
2017-11-28T15:31:56.373Z,44.85
2017-11-28T15:34:22.964Z,45.61
2017-11-28T15:36:48.813Z,45.46
2017-11-28T15:39:15.612Z,44.87
2017-11-28T15:41:42.367Z,44.80
2017-11-28T15:44:09.100Z,45.16
2017-11-28T15:46:34.882Z,45.02
2017-11-28T15:49:01.504Z,45.26
2017-11-28T15:51:27.298Z,45.07
2017-11-28T15:53:53.072Z,44.63
2017-11-28T15:56:18.849Z,44.62
2017-11-28T15:58:44.627Z,44.85
2017-11-28T16:01:10.413Z,45.15
2017-11-28T16:03:37.229Z,43.98
2017-11-28T16:06:04.005Z,43.05
2017-11-28T16:08:29.833Z,44.58
2017-11-28T16:10:55.652Z,45.38
2017-11-28T16:13:21.463Z,45.53
2017-11-28T16:15:48.166Z,44.23
2017-11-28T16:18:14.022Z,44.05
2017-11-28T16:20:40.621Z,44.38
2017-11-28T16:23:07.414Z,44.51
2017-11-28T16:25:33.196Z,44.10
2017-11-28T16:27:58.986Z,44.35
2017-11-28T16:30:25.674Z,44.46
2017-11-28T16:32:52.282Z,44.40
2017-11-28T16:35:18.178Z,44.41
2017-11-28T16:37:44.004Z,45.04
2017-11-28T16:40:10.738Z,45.57
2017-11-28T16:42:36.549Z,45.94
2017-11-28T16:45:02.341Z,44.93
2017-11-28T16:47:28.134Z,45.68
2017-11-28T16:49:54.134Z,45.30
2017-11-28T16:52:19.946Z,44.54
2017-11-28T16:54:45.862Z,44.93
2017-11-28T16:57:12.616Z,45.14
2017-11-28T16:59:38.402Z,45.43
2017-11-28T17:02:04.208Z,45.48
2017-11-28T17:04:30.105Z,45.39
2017-11-28T17:06:55.932Z,45.16
2017-11-28T17:09:21.737Z,45.01
2017-11-28T17:11:47.522Z,44.85
2017-11-28T17:14:14.197Z,45.00
2017-11-28T17:16:39.993Z,45.19
2017-11-28T17:19:05.794Z,44.81
2017-11-28T17:21:31.617Z,45.66
2017-11-28T17:23:58.324Z,45.32
2017-11-28T17:26:25.048Z,44.54
2017-11-28T17:28:50.857Z,45.20
2017-11-28T17:31:16.654Z,44.93
2017-11-28T17:33:42.444Z,45.89
2017-11-28T17:36:08.231Z,45.20
2017-11-28T17:38:34.981Z,44.79
2017-11-28T17:41:01.773Z,44.82
2017-11-28T17:43:27.548Z,45.17
2017-11-28T17:45:54.250Z,43.58
2017-11-28T17:48:21.036Z,43.13
2017-11-28T17:50:46.845Z,42.57
2017-11-28T17:53:12.846Z,42.15
2017-11-28T17:55:38.646Z,42.01
2017-11-28T17:58:04.465Z,42.50
2017-11-28T18:00:30.323Z,42.16
2017-11-28T18:02:56.130Z,42.15
2017-11-28T18:05:21.916Z,42.03
2017-11-28T18:07:47.707Z,41.99
2017-11-28T18:10:13.497Z,41.88
2017-11-28T18:12:39.317Z,41.65
2017-11-28T18:15:05.429Z,41.40
2017-11-28T18:17:31.222Z,41.91
2017-11-28T18:19:57.157Z,41.82
2017-11-28T18:22:24.933Z,41.52
2017-11-28T18:24:51.669Z,41.46
2017-11-28T18:27:17.519Z,41.63
2017-11-28T18:29:44.209Z,41.48
2017-11-28T18:32:10.014Z,41.57
2017-11-28T18:34:36.787Z,41.33
2017-11-28T18:37:02.655Z,41.60
2017-11-28T18:39:29.374Z,41.72
2017-11-28T18:41:55.166Z,41.57
2017-11-28T18:44:21.016Z,44.15
2017-11-28T18:46:46.809Z,43.72
2017-11-28T18:49:12.639Z,42.56
2017-11-28T18:51:38.447Z,42.35
2017-11-28T18:54:04.254Z,42.32
2017-11-28T18:56:30.131Z,42.22
2017-11-28T18:58:55.957Z,42.54
2017-11-28T19:01:21.790Z,42.43
2017-11-28T19:03:47.613Z,42.72
2017-11-28T19:06:13.453Z,42.92
2017-11-28T19:08:39.381Z,42.83
2017-11-28T19:11:05.174Z,42.56
2017-11-28T19:13:31.909Z,42.71
2017-11-28T19:15:58.069Z,43.46
2017-11-28T19:18:23.906Z,43.47
2017-11-28T19:20:50.672Z,43.91
2017-11-28T19:23:16.509Z,43.86
2017-11-28T19:25:42.321Z,43.62
2017-11-28T19:28:08.102Z,43.06
2017-11-28T19:30:33.874Z,43.26
2017-11-28T19:33:00.461Z,43.70
2017-11-28T19:35:26.242Z,43.27
2017-11-28T19:37:52.021Z,43.45
2017-11-28T19:40:17.839Z,44.11
2017-11-28T19:42:44.693Z,43.70
2017-11-28T19:45:10.483Z,44.02
2017-11-28T19:47:36.258Z,44.16
2017-11-28T19:50:02.077Z,45.15
2017-11-28T19:52:27.899Z,43.63
2017-11-28T19:54:53.672Z,44.17
2017-11-28T19:57:20.550Z,43.97
2017-11-28T19:59:47.263Z,44.11
2017-11-28T20:02:13.909Z,44.64
2017-11-28T20:04:39.676Z,44.00
2017-11-28T20:07:05.473Z,44.43
2017-11-28T20:09:31.521Z,44.63
2017-11-28T20:11:57.289Z,44.32
2017-11-28T20:14:23.101Z,45.10
2017-11-28T20:16:49.859Z,44.53
2017-11-28T20:19:16.658Z,43.68
2017-11-28T20:21:42.449Z,44.65
2017-11-28T20:24:08.249Z,44.93
2017-11-28T20:26:34.241Z,44.84
2017-11-28T20:29:00.036Z,45.06
2017-11-28T20:31:25.985Z,44.63
2017-11-28T20:33:51.770Z,44.79
2017-11-28T20:36:18.579Z,44.80
2017-11-28T20:38:44.414Z,44.68
2017-11-28T20:41:10.236Z,45.32
2017-11-28T20:43:36.029Z,44.95
2017-11-28T20:46:01.818Z,45.32
2017-11-28T20:48:27.591Z,45.55
2017-11-28T20:50:53.364Z,45.88
2017-11-28T20:53:19.203Z,46.84
2017-11-28T20:55:44.990Z,44.62
2017-11-28T20:58:10.813Z,44.68
2017-11-28T21:00:36.617Z,45.16
2017-11-28T21:03:03.232Z,45.13
2017-11-28T21:05:29.950Z,45.12
2017-11-28T21:07:55.922Z,45.16
2017-11-28T21:10:21.705Z,46.48
2017-11-28T21:12:47.497Z,45.71
2017-11-28T21:15:14.333Z,45.87
2017-11-28T21:17:40.127Z,44.10
2017-11-28T21:20:05.930Z,43.91
2017-11-28T21:22:31.725Z,44.78
2017-11-28T21:24:58.345Z,45.43
2017-11-28T21:27:24.151Z,45.71
2017-11-28T21:29:49.943Z,45.42
2017-11-28T21:32:15.772Z,44.71
2017-11-28T21:34:41.574Z,44.86
2017-11-28T21:37:07.369Z,44.82
2017-11-28T21:39:33.156Z,44.54
2017-11-28T21:41:58.946Z,45.04
2017-11-28T21:44:24.738Z,45.11
2017-11-28T21:46:50.522Z,45.21
2017-11-28T21:49:16.309Z,44.88
2017-11-28T21:51:43.026Z,44.37
2017-11-28T21:54:08.941Z,45.26
2017-11-28T21:56:34.793Z,45.05
2017-11-28T21:59:00.709Z,44.89
2017-11-28T22:01:26.498Z,44.77
2017-11-28T22:03:52.321Z,44.75
2017-11-28T22:06:19.233Z,45.23
2017-11-28T22:08:45.465Z,44.25
2017-11-28T22:11:11.463Z,45.09
2017-11-28T22:13:38.318Z,44.97
2017-11-28T22:16:05.171Z,44.79
2017-11-28T22:18:30.965Z,45.35
2017-11-28T22:20:56.794Z,45.02
2017-11-28T22:23:23.626Z,44.82
2017-11-28T22:25:49.455Z,44.55
2017-11-28T22:28:15.298Z,45.55
2017-11-28T22:30:41.124Z,45.88
2017-11-28T22:33:07.804Z,45.08
2017-11-28T22:35:33.630Z,45.51
2017-11-28T22:37:59.436Z,46.18
2017-11-28T22:40:25.280Z,45.20
2017-11-28T22:42:51.091Z,45.31
2017-11-28T22:45:16.909Z,46.16
2017-11-28T22:47:42.712Z,45.82
2017-11-28T22:50:08.545Z,46.39
2017-11-28T22:52:35.246Z,46.06
2017-11-28T22:55:01.021Z,44.97
2017-11-28T22:57:26.810Z,45.22
2017-11-28T22:59:52.624Z,45.15
2017-11-28T23:02:18.576Z,45.58
2017-11-28T23:04:44.379Z,45.21
2017-11-28T23:07:11.084Z,45.61
2017-11-28T23:09:36.861Z,45.51
2017-11-28T23:12:02.716Z,46.22
2017-11-28T23:14:32.463Z,46.60
2017-11-28T23:16:58.244Z,46.67
2017-11-28T23:19:24.070Z,46.77
2017-11-28T23:21:49.868Z,45.47
2017-11-28T23:24:15.664Z,45.48
2017-11-28T23:26:42.312Z,45.81
2017-11-28T23:29:09.065Z,45.22
2017-11-28T23:31:35.805Z,44.36
2017-11-28T23:34:02.529Z,44.48
2017-11-28T23:36:28.343Z,44.10
2017-11-28T23:38:54.134Z,44.23
2017-11-28T23:41:19.921Z,44.29
2017-11-28T23:43:46.523Z,43.75
2017-11-28T23:46:12.359Z,44.42
2017-11-28T23:48:38.164Z,44.32
2017-11-28T23:51:04.913Z,44.14
2017-11-28T23:53:30.744Z,44.64
2017-11-28T23:55:56.572Z,44.09
2017-11-28T23:58:23.365Z,44.15
